sensor_id;sensor_type;location;lat;lon;timestamp;temperature;humidity
7676;DHT22;3880;51.464;-2.566;2022-08-21T07:09:38;18.40;99.90
7676;DHT22;3880;51.464;-2.566;2022-08-21T07:12:06;18.60;99.90
7676;DHT22;3880;51.464;-2.566;2022-08-21T07:14:34;18.80;99.90
7676;DHT22;3880;51.464;-2.566;2022-08-21T07:17:01;18.90;99.90
7676;DHT22;3880;51.464;-2.566;2022-08-21T07:19:28;18.80;99.90
7676;DHT22;3880;51.464;-2.566;2022-08-21T07:21:58;18.70;99.90
7676;DHT22;3880;51.464;-2.566;2022-08-21T07:24:26;18.80;99.90
7676;DHT22;3880;51.464;-2.566;2022-08-21T07:26:55;18.40;99.90
7676;DHT22;3880;51.464;-2.566;2022-08-21T07:29:22;18.30;99.90
7676;DHT22;3880;51.464;-2.566;2022-08-21T07:31:49;18.30;99.90
7676;DHT22;3880;51.464;-2.566;2022-08-21T07:34:16;18.20;99.90
7676;DHT22;3880;51.464;-2.566;2022-08-21T07:36:43;18.20;99.90
7676;DHT22;3880;51.464;-2.566;2022-08-21T07:39:10;18.20;99.90
7676;DHT22;3880;51.464;-2.566;2022-08-21T07:41:37;18.10;99.90
7676;DHT22;3880;51.464;-2.566;2022-08-21T07:44:05;18.30;99.90
7676;DHT22;3880;51.464;-2.566;2022-08-21T07:46:35;18.30;99.90
7676;DHT22;3880;51.464;-2.566;2022-08-21T07:49:02;18.20;99.90
7676;DHT22;3880;51.464;-2.566;2022-08-21T07:51:30;18.20;99.90
7676;DHT22;3880;51.464;-2.566;2022-08-21T07:53:58;18.20;99.90
7676;DHT22;3880;51.464;-2.566;2022-08-21T07:56:26;18.20;99.90
7676;DHT22;3880;51.464;-2.566;2022-08-21T07:58:53;18.10;99.90
7676;DHT22;3880;51.464;-2.566;2022-08-21T08:01:23;18.20;99.90
7676;DHT22;3880;51.464;-2.566;2022-08-21T08:03:50;18.30;99.90
7676;DHT22;3880;51.464;-2.566;2022-08-21T08:06:17;18.30;99.90
7676;DHT22;3880;51.464;-2.566;2022-08-21T08:08:45;18.30;99.90
7676;DHT22;3880;51.464;-2.566;2022-08-21T08:11:13;18.20;99.90
7676;DHT22;3880;51.464;-2.566;2022-08-21T08:13:42;18.20;99.90
7676;DHT22;3880;51.464;-2.566;2022-08-21T08:16:10;18.10;99.90
7676;DHT22;3880;51.464;-2.566;2022-08-21T08:18:38;18.20;99.90
7676;DHT22;3880;51.464;-2.566;2022-08-21T08:21:06;18.20;99.90
7676;DHT22;3880;51.464;-2.566;2022-08-21T08:23:33;18.30;99.90
7676;DHT22;3880;51.464;-2.566;2022-08-21T08:26:00;18.40;99.90
7676;DHT22;3880;51.464;-2.566;2022-08-21T08:28:28;18.60;99.90
7676;DHT22;3880;51.464;-2.566;2022-08-21T08:30:57;18.20;99.90
7676;DHT22;3880;51.464;-2.566;2022-08-21T08:33:24;18.50;99.90
7676;DHT22;3880;51.464;-2.566;2022-08-21T08:35:54;18.60;99.90
7676;DHT22;3880;51.464;-2.566;2022-08-21T08:38:24;18.80;99.90
7676;DHT22;3880;51.464;-2.566;2022-08-21T08:40:55;18.90;99.90
7676;DHT22;3880;51.464;-2.566;2022-08-21T08:43:25;19.20;99.90
7676;DHT22;3880;51.464;-2.566;2022-08-21T08:45:56;19.00;99.90
7676;DHT22;3880;51.464;-2.566;2022-08-21T08:48:36;19.20;99.90
7676;DHT22;3880;51.464;-2.566;2022-08-21T08:51:11;19.30;99.90
7676;DHT22;3880;51.464;-2.566;2022-08-21T08:53:47;19.60;99.90
7676;DHT22;3880;51.464;-2.566;2022-08-21T08:56:21;19.70;99.90
7676;DHT22;3880;51.464;-2.566;2022-08-21T08:58:51;19.70;99.90
7676;DHT22;3880;51.464;-2.566;2022-08-21T09:01:20;19.80;99.90
7676;DHT22;3880;51.464;-2.566;2022-08-21T09:03:49;20.00;99.90
7676;DHT22;3880;51.464;-2.566;2022-08-21T09:06:32;20.20;99.90
7676;DHT22;3880;51.464;-2.566;2022-08-21T09:12:03;20.30;99.90
7676;DHT22;3880;51.464;-2.566;2022-08-21T09:14:45;19.80;99.90
7676;DHT22;3880;51.464;-2.566;2022-08-21T09:17:24;20.00;99.90
7676;DHT22;3880;51.464;-2.566;2022-08-21T09:20:08;20.40;99.90
7676;DHT22;3880;51.464;-2.566;2022-08-21T09:22:57;20.80;99.90
7676;DHT22;3880;51.464;-2.566;2022-08-21T09:25:28;20.80;99.90
7676;DHT22;3880;51.464;-2.566;2022-08-21T09:27:57;21.30;99.90
7676;DHT22;3880;51.464;-2.566;2022-08-21T09:30:27;21.60;99.90
7676;DHT22;3880;51.464;-2.566;2022-08-21T09:32:54;21.90;99.90
7676;DHT22;3880;51.464;-2.566;2022-08-21T09:35:23;22.10;99.90
7676;DHT22;3880;51.464;-2.566;2022-08-21T09:37:54;22.20;99.90
7676;DHT22;3880;51.464;-2.566;2022-08-21T09:40:33;22.00;99.90
7676;DHT22;3880;51.464;-2.566;2022-08-21T09:43:03;22.40;99.90
7676;DHT22;3880;51.464;-2.566;2022-08-21T09:45:32;22.90;99.90
7676;DHT22;3880;51.464;-2.566;2022-08-21T09:48:08;23.30;99.90
7676;DHT22;3880;51.464;-2.566;2022-08-21T09:50:36;23.70;99.90
7676;DHT22;3880;51.464;-2.566;2022-08-21T09:53:13;23.70;99.90
7676;DHT22;3880;51.464;-2.566;2022-08-21T09:55:49;24.10;99.90
7676;DHT22;3880;51.464;-2.566;2022-08-21T09:58:35;24.70;99.90
7676;DHT22;3880;51.464;-2.566;2022-08-21T10:01:06;24.80;99.90
7676;DHT22;3880;51.464;-2.566;2022-08-21T10:03:38;24.90;99.90
7676;DHT22;3880;51.464;-2.566;2022-08-21T10:06:08;24.10;99.90
7676;DHT22;3880;51.464;-2.566;2022-08-21T10:08:40;24.10;99.90
7676;DHT22;3880;51.464;-2.566;2022-08-21T10:11:09;24.30;99.90
7676;DHT22;3880;51.464;-2.566;2022-08-21T10:13:50;25.00;99.90
7676;DHT22;3880;51.464;-2.566;2022-08-21T10:16:28;25.80;99.90
7676;DHT22;3880;51.464;-2.566;2022-08-21T10:19:06;26.00;99.90
7676;DHT22;3880;51.464;-2.566;2022-08-21T10:21:42;26.00;99.90
7676;DHT22;3880;51.464;-2.566;2022-08-21T10:24:20;26.00;99.90
7676;DHT22;3880;51.464;-2.566;2022-08-21T10:26:55;26.20;99.90
7676;DHT22;3880;51.464;-2.566;2022-08-21T10:29:39;26.30;99.90
7676;DHT22;3880;51.464;-2.566;2022-08-21T10:32:14;26.70;99.90
7676;DHT22;3880;51.464;-2.566;2022-08-21T10:34:50;27.20;99.90
7676;DHT22;3880;51.464;-2.566;2022-08-21T10:37:24;28.00;99.90
7676;DHT22;3880;51.464;-2.566;2022-08-21T10:40:06;28.40;99.90
7676;DHT22;3880;51.464;-2.566;2022-08-21T10:42:40;29.70;99.90
7676;DHT22;3880;51.464;-2.566;2022-08-21T10:45:15;31.10;99.90
7676;DHT22;3880;51.464;-2.566;2022-08-21T10:47:54;32.10;99.90
7676;DHT22;3880;51.464;-2.566;2022-08-21T10:50:29;33.00;99.90
7676;DHT22;3880;51.464;-2.566;2022-08-21T10:53:12;33.30;99.90
7676;DHT22;3880;51.464;-2.566;2022-08-21T10:55:48;34.70;99.90
7676;DHT22;3880;51.464;-2.566;2022-08-21T10:58:22;33.40;99.90
7676;DHT22;3880;51.464;-2.566;2022-08-21T11:00:56;33.40;98.80
7676;DHT22;3880;51.464;-2.566;2022-08-21T11:03:32;33.10;98.60
7676;DHT22;3880;51.464;-2.566;2022-08-21T11:06:04;34.20;98.50
7676;DHT22;3880;51.464;-2.566;2022-08-21T11:08:37;35.00;97.10
7676;DHT22;3880;51.464;-2.566;2022-08-21T11:11:10;35.30;96.90
7676;DHT22;3880;51.464;-2.566;2022-08-21T11:13:41;35.20;96.30
7676;DHT22;3880;51.464;-2.566;2022-08-21T11:16:15;34.50;95.50
7676;DHT22;3880;51.464;-2.566;2022-08-21T11:18:46;33.90;95.50
7676;DHT22;3880;51.464;-2.566;2022-08-21T11:21:36;33.10;96.80
7676;DHT22;3880;51.464;-2.566;2022-08-21T11:24:14;34.00;96.00
7676;DHT22;3880;51.464;-2.566;2022-08-21T11:26:48;33.80;95.20
7676;DHT22;3880;51.464;-2.566;2022-08-21T11:29:36;31.90;96.00
7676;DHT22;3880;51.464;-2.566;2022-08-21T11:35:09;33.50;95.10
7676;DHT22;3880;51.464;-2.566;2022-08-21T11:37:48;34.50;95.30
7676;DHT22;3880;51.464;-2.566;2022-08-21T11:40:28;35.60;94.30
7676;DHT22;3880;51.464;-2.566;2022-08-21T11:43:06;35.90;94.30
7676;DHT22;3880;51.464;-2.566;2022-08-21T11:45:42;37.00;94.60
7676;DHT22;3880;51.464;-2.566;2022-08-21T11:48:16;37.90;92.70
7676;DHT22;3880;51.464;-2.566;2022-08-21T11:50:47;38.10;92.50
7676;DHT22;3880;51.464;-2.566;2022-08-21T11:53:19;38.00;90.90
7676;DHT22;3880;51.464;-2.566;2022-08-21T11:55:51;33.70;91.40
7676;DHT22;3880;51.464;-2.566;2022-08-21T11:58:25;32.00;93.90
7676;DHT22;3880;51.464;-2.566;2022-08-21T12:00:55;31.20;93.80
7676;DHT22;3880;51.464;-2.566;2022-08-21T12:03:27;30.70;95.80
7676;DHT22;3880;51.464;-2.566;2022-08-21T12:05:57;30.80;96.50
7676;DHT22;3880;51.464;-2.566;2022-08-21T12:08:30;31.40;96.40
7676;DHT22;3880;51.464;-2.566;2022-08-21T12:11:03;31.70;95.50
7676;DHT22;3880;51.464;-2.566;2022-08-21T12:13:34;30.50;96.40
7676;DHT22;3880;51.464;-2.566;2022-08-21T12:16:09;29.40;97.70
7676;DHT22;3880;51.464;-2.566;2022-08-21T12:18:37;29.20;98.70
7676;DHT22;3880;51.464;-2.566;2022-08-21T12:21:20;29.20;98.90
7676;DHT22;3880;51.464;-2.566;2022-08-21T12:24:00;28.90;99.70
7676;DHT22;3880;51.464;-2.566;2022-08-21T12:26:30;27.70;99.90
7676;DHT22;3880;51.464;-2.566;2022-08-21T12:29:10;27.80;99.90
7676;DHT22;3880;51.464;-2.566;2022-08-21T12:31:52;27.50;99.90
7676;DHT22;3880;51.464;-2.566;2022-08-21T12:34:21;26.50;99.90
7676;DHT22;3880;51.464;-2.566;2022-08-21T12:36:53;26.40;99.90
7676;DHT22;3880;51.464;-2.566;2022-08-21T12:39:24;26.00;99.90
7676;DHT22;3880;51.464;-2.566;2022-08-21T12:41:58;26.30;99.90
7676;DHT22;3880;51.464;-2.566;2022-08-21T12:44:34;26.60;99.90
7676;DHT22;3880;51.464;-2.566;2022-08-21T12:47:05;27.70;99.90
7676;DHT22;3880;51.464;-2.566;2022-08-21T12:49:36;29.00;99.90
7676;DHT22;3880;51.464;-2.566;2022-08-21T12:52:09;31.10;99.90
7676;DHT22;3880;51.464;-2.566;2022-08-21T12:54:40;32.20;99.00
7676;DHT22;3880;51.464;-2.566;2022-08-21T12:57:08;32.60;97.90
7676;DHT22;3880;51.464;-2.566;2022-08-21T12:59:39;32.10;97.50
7676;DHT22;3880;51.464;-2.566;2022-08-21T13:02:16;31.00;98.00
7676;DHT22;3880;51.464;-2.566;2022-08-21T13:04:45;28.90;99.60
7676;DHT22;3880;51.464;-2.566;2022-08-21T13:07:14;28.00;99.90
7676;DHT22;3880;51.464;-2.566;2022-08-21T13:09:48;27.40;99.90
7676;DHT22;3880;51.464;-2.566;2022-08-21T13:12:16;27.50;99.90
7676;DHT22;3880;51.464;-2.566;2022-08-21T13:14:45;28.10;99.90
7676;DHT22;3880;51.464;-2.566;2022-08-21T13:17:14;28.40;99.90
7676;DHT22;3880;51.464;-2.566;2022-08-21T13:19:53;28.00;99.90
7676;DHT22;3880;51.464;-2.566;2022-08-21T13:22:20;28.30;99.90
7676;DHT22;3880;51.464;-2.566;2022-08-21T13:24:48;28.10;99.90
7676;DHT22;3880;51.464;-2.566;2022-08-21T13:27:18;27.60;99.90
7676;DHT22;3880;51.464;-2.566;2022-08-21T13:29:47;27.30;99.90
7676;DHT22;3880;51.464;-2.566;2022-08-21T13:32:22;27.10;99.90
7676;DHT22;3880;51.464;-2.566;2022-08-21T13:34:52;27.00;99.90
7676;DHT22;3880;51.464;-2.566;2022-08-21T13:37:19;27.40;99.90
7676;DHT22;3880;51.464;-2.566;2022-08-21T13:39:50;27.10;99.90
7676;DHT22;3880;51.464;-2.566;2022-08-21T13:42:18;26.60;99.90
7676;DHT22;3880;51.464;-2.566;2022-08-21T13:44:47;27.30;99.90
7676;DHT22;3880;51.464;-2.566;2022-08-21T13:47:16;29.20;99.90
7676;DHT22;3880;51.464;-2.566;2022-08-21T13:49:46;31.30;99.60
7676;DHT22;3880;51.464;-2.566;2022-08-21T13:52:15;31.30;98.00
7676;DHT22;3880;51.464;-2.566;2022-08-21T13:54:53;30.90;98.30
7676;DHT22;3880;51.464;-2.566;2022-08-21T13:57:25;30.50;98.80
7676;DHT22;3880;51.464;-2.566;2022-08-21T14:00:10;29.40;99.20
7676;DHT22;3880;51.464;-2.566;2022-08-21T14:02:39;29.00;99.90
7676;DHT22;3880;51.464;-2.566;2022-08-21T14:05:10;29.90;99.00
7676;DHT22;3880;51.464;-2.566;2022-08-21T14:07:42;29.30;98.80
7676;DHT22;3880;51.464;-2.566;2022-08-21T14:10:16;28.70;99.50
7676;DHT22;3880;51.464;-2.566;2022-08-21T14:12:47;29.40;99.80
7676;DHT22;3880;51.464;-2.566;2022-08-21T14:15:18;31.00;98.50
7676;DHT22;3880;51.464;-2.566;2022-08-21T14:17:45;32.30;97.60
7676;DHT22;3880;51.464;-2.566;2022-08-21T14:20:26;33.00;96.50
7676;DHT22;3880;51.464;-2.566;2022-08-21T14:22:54;34.00;95.70
7676;DHT22;3880;51.464;-2.566;2022-08-21T14:25:29;34.60;95.30
7676;DHT22;3880;51.464;-2.566;2022-08-21T14:28:04;34.00;94.50
7676;DHT22;3880;51.464;-2.566;2022-08-21T14:30:38;30.20;96.90
7676;DHT22;3880;51.464;-2.566;2022-08-21T14:33:10;30.10;97.30
7676;DHT22;3880;51.464;-2.566;2022-08-21T14:35:38;30.00;98.00
7676;DHT22;3880;51.464;-2.566;2022-08-21T14:38:12;30.40;97.60
7676;DHT22;3880;51.464;-2.566;2022-08-21T14:40:40;30.40;97.80
7676;DHT22;3880;51.464;-2.566;2022-08-21T14:43:08;30.10;98.00
7676;DHT22;3880;51.464;-2.566;2022-08-21T14:45:36;28.60;99.10
7676;DHT22;3880;51.464;-2.566;2022-08-21T14:48:07;28.00;99.50
7676;DHT22;3880;51.464;-2.566;2022-08-21T14:50:34;27.00;99.90
7676;DHT22;3880;51.464;-2.566;2022-08-21T14:53:02;26.80;99.90
7676;DHT22;3880;51.464;-2.566;2022-08-21T14:55:30;27.00;99.90
7676;DHT22;3880;51.464;-2.566;2022-08-21T14:58:20;27.20;99.90
7676;DHT22;3880;51.464;-2.566;2022-08-21T15:00:50;27.30;99.90
7676;DHT22;3880;51.464;-2.566;2022-08-21T15:03:18;26.80;99.90
7676;DHT22;3880;51.464;-2.566;2022-08-21T15:05:47;26.90;99.90
7676;DHT22;3880;51.464;-2.566;2022-08-21T15:08:14;26.60;99.90
7676;DHT22;3880;51.464;-2.566;2022-08-21T15:10:41;26.70;99.90
7676;DHT22;3880;51.464;-2.566;2022-08-21T15:13:08;26.90;99.90
7676;DHT22;3880;51.464;-2.566;2022-08-21T15:15:39;27.20;99.90
7676;DHT22;3880;51.464;-2.566;2022-08-21T15:18:08;28.10;99.90
7676;DHT22;3880;51.464;-2.566;2022-08-21T15:20:36;29.70;99.90
7676;DHT22;3880;51.464;-2.566;2022-08-21T15:23:04;29.70;99.90
7676;DHT22;3880;51.464;-2.566;2022-08-21T15:25:31;29.30;99.90
7676;DHT22;3880;51.464;-2.566;2022-08-21T15:27:59;29.20;99.90
7676;DHT22;3880;51.464;-2.566;2022-08-21T15:30:26;28.40;99.90
7676;DHT22;3880;51.464;-2.566;2022-08-21T15:32:53;28.50;99.90
7676;DHT22;3880;51.464;-2.566;2022-08-21T15:35:22;29.10;99.90
7676;DHT22;3880;51.464;-2.566;2022-08-21T15:37:49;29.50;99.90
7676;DHT22;3880;51.464;-2.566;2022-08-21T15:40:16;30.00;99.90
7676;DHT22;3880;51.464;-2.566;2022-08-21T15:42:43;30.00;99.90
7676;DHT22;3880;51.464;-2.566;2022-08-21T15:45:12;29.40;99.90
7676;DHT22;3880;51.464;-2.566;2022-08-21T15:47:43;28.10;99.90
7676;DHT22;3880;51.464;-2.566;2022-08-21T15:50:12;27.70;99.90
7676;DHT22;3880;51.464;-2.566;2022-08-21T15:52:40;27.40;99.90
7676;DHT22;3880;51.464;-2.566;2022-08-21T15:55:08;27.20;99.90
7676;DHT22;3880;51.464;-2.566;2022-08-21T15:57:37;27.00;99.90
7676;DHT22;3880;51.464;-2.566;2022-08-21T16:00:11;27.00;99.90
7676;DHT22;3880;51.464;-2.566;2022-08-21T16:02:43;26.00;99.90
7676;DHT22;3880;51.464;-2.566;2022-08-21T16:05:11;25.80;99.90
7676;DHT22;3880;51.464;-2.566;2022-08-21T16:07:40;25.80;99.90
7676;DHT22;3880;51.464;-2.566;2022-08-21T16:10:07;25.90;99.90
7676;DHT22;3880;51.464;-2.566;2022-08-21T16:12:37;25.90;99.90
7676;DHT22;3880;51.464;-2.566;2022-08-21T16:15:07;25.90;99.90
7676;DHT22;3880;51.464;-2.566;2022-08-21T16:17:36;25.60;99.90
7676;DHT22;3880;51.464;-2.566;2022-08-21T16:20:08;25.40;99.90
7676;DHT22;3880;51.464;-2.566;2022-08-21T16:22:36;25.20;99.90
7676;DHT22;3880;51.464;-2.566;2022-08-21T16:25:06;25.20;99.90
7676;DHT22;3880;51.464;-2.566;2022-08-21T16:27:34;25.10;99.90
7676;DHT22;3880;51.464;-2.566;2022-08-21T16:30:03;25.10;99.90
7676;DHT22;3880;51.464;-2.566;2022-08-21T16:32:30;25.10;99.90
7676;DHT22;3880;51.464;-2.566;2022-08-21T16:35:00;25.20;99.90
7676;DHT22;3880;51.464;-2.566;2022-08-21T16:37:27;24.90;99.90
7676;DHT22;3880;51.464;-2.566;2022-08-21T16:39:54;24.80;99.90
7676;DHT22;3880;51.464;-2.566;2022-08-21T16:42:24;24.80;99.90
7676;DHT22;3880;51.464;-2.566;2022-08-21T16:44:52;25.00;99.90
7676;DHT22;3880;51.464;-2.566;2022-08-21T16:47:19;25.00;99.90
7676;DHT22;3880;51.464;-2.566;2022-08-21T16:49:46;24.90;99.90
7676;DHT22;3880;51.464;-2.566;2022-08-21T16:52:15;24.80;99.90
7676;DHT22;3880;51.464;-2.566;2022-08-21T16:54:42;24.80;99.90
7676;DHT22;3880;51.464;-2.566;2022-08-21T16:57:09;24.70;99.90
7676;DHT22;3880;51.464;-2.566;2022-08-21T16:59:39;24.60;99.90
7676;DHT22;3880;51.464;-2.566;2022-08-21T17:02:17;24.50;99.90
7676;DHT22;3880;51.464;-2.566;2022-08-21T17:04:47;24.40;99.90
7676;DHT22;3880;51.464;-2.566;2022-08-21T17:07:14;24.30;99.90
7676;DHT22;3880;51.464;-2.566;2022-08-21T17:09:41;24.40;99.90
7676;DHT22;3880;51.464;-2.566;2022-08-21T17:12:08;24.50;99.90
7676;DHT22;3880;51.464;-2.566;2022-08-21T17:14:35;24.50;99.90
7676;DHT22;3880;51.464;-2.566;2022-08-21T17:17:05;24.40;99.90
7676;DHT22;3880;51.464;-2.566;2022-08-21T17:19:33;24.20;99.90
7676;DHT22;3880;51.464;-2.566;2022-08-21T17:22:00;24.10;99.90
7676;DHT22;3880;51.464;-2.566;2022-08-21T17:24:27;23.90;99.90
7676;DHT22;3880;51.464;-2.566;2022-08-21T17:26:54;24.00;99.90
7676;DHT22;3880;51.464;-2.566;2022-08-21T17:29:25;24.00;99.90
7676;DHT22;3880;51.464;-2.566;2022-08-21T17:31:54;23.70;99.90
7676;DHT22;3880;51.464;-2.566;2022-08-21T17:34:24;23.40;99.90
7676;DHT22;3880;51.464;-2.566;2022-08-21T17:36:51;23.20;99.90
7676;DHT22;3880;51.464;-2.566;2022-08-21T17:39:18;22.80;99.90
7676;DHT22;3880;51.464;-2.566;2022-08-21T17:41:45;22.80;99.90
7676;DHT22;3880;51.464;-2.566;2022-08-21T17:44:14;22.80;99.90
7676;DHT22;3880;51.464;-2.566;2022-08-21T17:46:42;22.80;99.90
7676;DHT22;3880;51.464;-2.566;2022-08-21T17:49:09;22.70;99.90
7676;DHT22;3880;51.464;-2.566;2022-08-21T17:51:39;22.60;99.90
7676;DHT22;3880;51.464;-2.566;2022-08-21T17:54:06;22.60;99.90
7676;DHT22;3880;51.464;-2.566;2022-08-21T17:56:35;22.30;99.90
7676;DHT22;3880;51.464;-2.566;2022-08-21T17:59:04;22.40;99.90
7676;DHT22;3880;51.464;-2.566;2022-08-21T18:01:33;22.50;99.90
7676;DHT22;3880;51.464;-2.566;2022-08-21T18:04:01;22.60;99.90
7676;DHT22;3880;51.464;-2.566;2022-08-21T18:06:28;22.50;99.90
7676;DHT22;3880;51.464;-2.566;2022-08-21T18:08:57;22.50;99.90
7676;DHT22;3880;51.464;-2.566;2022-08-21T18:11:27;22.50;99.90
7676;DHT22;3880;51.464;-2.566;2022-08-21T18:13:56;22.50;99.90
7676;DHT22;3880;51.464;-2.566;2022-08-21T18:16:26;22.40;99.90
7676;DHT22;3880;51.464;-2.566;2022-08-21T18:18:55;22.20;99.90
7676;DHT22;3880;51.464;-2.566;2022-08-21T18:21:23;22.10;99.90
7676;DHT22;3880;51.464;-2.566;2022-08-21T18:23:50;22.10;99.90
7676;DHT22;3880;51.464;-2.566;2022-08-21T18:26:28;22.20;99.90
7676;DHT22;3880;51.464;-2.566;2022-08-21T18:28:57;22.30;99.90
7676;DHT22;3880;51.464;-2.566;2022-08-21T18:31:27;22.20;99.90
7676;DHT22;3880;51.464;-2.566;2022-08-21T18:33:54;22.20;99.90
7676;DHT22;3880;51.464;-2.566;2022-08-21T18:36:22;22.20;99.90
7676;DHT22;3880;51.464;-2.566;2022-08-21T18:38:49;22.20;99.90
7676;DHT22;3880;51.464;-2.566;2022-08-21T18:41:16;22.20;99.90
7676;DHT22;3880;51.464;-2.566;2022-08-21T18:43:45;22.40;99.90
7676;DHT22;3880;51.464;-2.566;2022-08-21T18:46:12;22.30;99.90
7676;DHT22;3880;51.464;-2.566;2022-08-21T18:48:40;22.30;99.90
7676;DHT22;3880;51.464;-2.566;2022-08-21T18:51:07;22.10;99.90
7676;DHT22;3880;51.464;-2.566;2022-08-21T18:53:35;22.10;99.90
7676;DHT22;3880;51.464;-2.566;2022-08-21T18:56:03;22.00;99.90
7676;DHT22;3880;51.464;-2.566;2022-08-21T18:58:31;21.80;99.90
7676;DHT22;3880;51.464;-2.566;2022-08-21T19:00:59;21.80;99.90
7676;DHT22;3880;51.464;-2.566;2022-08-21T19:03:26;21.80;99.90
7676;DHT22;3880;51.464;-2.566;2022-08-21T19:05:54;21.50;99.90
7676;DHT22;3880;51.464;-2.566;2022-08-21T19:08:22;21.50;99.90
7676;DHT22;3880;51.464;-2.566;2022-08-21T19:10:50;21.30;99.90
7676;DHT22;3880;51.464;-2.566;2022-08-21T19:13:21;21.30;99.90
7676;DHT22;3880;51.464;-2.566;2022-08-21T19:15:49;21.40;99.90
7676;DHT22;3880;51.464;-2.566;2022-08-21T19:18:20;21.40;99.90
7676;DHT22;3880;51.464;-2.566;2022-08-21T19:20:49;21.40;99.90
7676;DHT22;3880;51.464;-2.566;2022-08-21T19:23:18;21.40;99.90
7676;DHT22;3880;51.464;-2.566;2022-08-21T19:25:47;21.40;99.90
7676;DHT22;3880;51.464;-2.566;2022-08-21T19:28:19;21.50;99.90
7676;DHT22;3880;51.464;-2.566;2022-08-21T19:30:56;21.40;99.90
7676;DHT22;3880;51.464;-2.566;2022-08-21T19:33:30;21.40;99.90
7676;DHT22;3880;51.464;-2.566;2022-08-21T19:35:57;21.30;99.90
7676;DHT22;3880;51.464;-2.566;2022-08-21T19:38:24;21.30;99.90
7676;DHT22;3880;51.464;-2.566;2022-08-21T19:40:52;21.30;99.90
7676;DHT22;3880;51.464;-2.566;2022-08-21T19:43:20;21.20;99.90
7676;DHT22;3880;51.464;-2.566;2022-08-21T19:45:47;21.40;99.90
7676;DHT22;3880;51.464;-2.566;2022-08-21T19:48:15;21.40;99.90
7676;DHT22;3880;51.464;-2.566;2022-08-21T19:50:43;21.40;99.90
7676;DHT22;3880;51.464;-2.566;2022-08-21T19:53:10;21.60;99.90
7676;DHT22;3880;51.464;-2.566;2022-08-21T19:55:42;21.50;99.90
7676;DHT22;3880;51.464;-2.566;2022-08-21T19:58:21;21.30;99.90
7676;DHT22;3880;51.464;-2.566;2022-08-21T20:00:49;21.30;99.90
7676;DHT22;3880;51.464;-2.566;2022-08-21T20:03:16;21.30;99.90
7676;DHT22;3880;51.464;-2.566;2022-08-21T20:05:44;21.30;99.90
7676;DHT22;3880;51.464;-2.566;2022-08-21T20:08:11;21.30;99.90
7676;DHT22;3880;51.464;-2.566;2022-08-21T20:10:39;21.30;99.90
7676;DHT22;3880;51.464;-2.566;2022-08-21T20:13:07;21.30;99.90
7676;DHT22;3880;51.464;-2.566;2022-08-21T20:15:34;21.40;99.90
7676;DHT22;3880;51.464;-2.566;2022-08-21T20:18:01;21.40;99.90
7676;DHT22;3880;51.464;-2.566;2022-08-21T20:20:28;21.20;99.90
7676;DHT22;3880;51.464;-2.566;2022-08-21T20:22:56;21.10;99.90
7676;DHT22;3880;51.464;-2.566;2022-08-21T20:25:32;21.00;99.90
7676;DHT22;3880;51.464;-2.566;2022-08-21T20:28:00;20.80;99.90
7676;DHT22;3880;51.464;-2.566;2022-08-21T20:30:28;20.70;99.90
7676;DHT22;3880;51.464;-2.566;2022-08-21T20:32:55;20.50;99.90
7676;DHT22;3880;51.464;-2.566;2022-08-21T20:35:23;20.30;99.90
7676;DHT22;3880;51.464;-2.566;2022-08-21T20:37:50;20.10;99.90
7676;DHT22;3880;51.464;-2.566;2022-08-21T20:40:18;20.10;99.90
7676;DHT22;3880;51.464;-2.566;2022-08-21T20:42:48;20.30;99.90
7676;DHT22;3880;51.464;-2.566;2022-08-21T20:45:18;20.40;99.90
7676;DHT22;3880;51.464;-2.566;2022-08-21T20:47:46;20.50;99.90
7676;DHT22;3880;51.464;-2.566;2022-08-21T20:50:17;20.60;99.90
7676;DHT22;3880;51.464;-2.566;2022-08-21T20:52:49;20.60;99.90
7676;DHT22;3880;51.464;-2.566;2022-08-21T20:55:22;20.50;99.90
7676;DHT22;3880;51.464;-2.566;2022-08-21T20:57:54;20.30;99.90
7676;DHT22;3880;51.464;-2.566;2022-08-21T21:00:23;20.30;99.90
7676;DHT22;3880;51.464;-2.566;2022-08-21T21:02:57;20.20;99.90
7676;DHT22;3880;51.464;-2.566;2022-08-21T21:05:28;19.80;99.90
7676;DHT22;3880;51.464;-2.566;2022-08-21T21:08:00;19.80;99.90
7676;DHT22;3880;51.464;-2.566;2022-08-21T21:10:35;19.90;99.90
7676;DHT22;3880;51.464;-2.566;2022-08-21T21:13:09;19.70;99.90
7676;DHT22;3880;51.464;-2.566;2022-08-21T21:15:41;19.50;99.90
7676;DHT22;3880;51.464;-2.566;2022-08-21T21:18:12;19.40;99.90
7676;DHT22;3880;51.464;-2.566;2022-08-21T21:20:45;19.50;99.90
7676;DHT22;3880;51.464;-2.566;2022-08-21T21:23:20;19.40;99.90
7676;DHT22;3880;51.464;-2.566;2022-08-21T21:25:54;19.60;99.90
7676;DHT22;3880;51.464;-2.566;2022-08-21T21:28:29;19.70;99.90
7676;DHT22;3880;51.464;-2.566;2022-08-21T21:30:58;19.60;99.90
7676;DHT22;3880;51.464;-2.566;2022-08-21T21:33:26;19.60;99.90
7676;DHT22;3880;51.464;-2.566;2022-08-21T21:35:58;19.60;99.90
7676;DHT22;3880;51.464;-2.566;2022-08-21T21:38:31;19.70;99.90
7676;DHT22;3880;51.464;-2.566;2022-08-21T21:41:09;19.60;99.90
7676;DHT22;3880;51.464;-2.566;2022-08-21T21:43:51;19.60;99.90
7676;DHT22;3880;51.464;-2.566;2022-08-21T21:46:32;19.70;99.90
7676;DHT22;3880;51.464;-2.566;2022-08-21T21:49:14;19.80;99.90
7676;DHT22;3880;51.464;-2.566;2022-08-21T21:51:53;19.80;99.90
7676;DHT22;3880;51.464;-2.566;2022-08-21T21:55:04;19.70;99.90
7676;DHT22;3880;51.464;-2.566;2022-08-21T22:00:30;19.40;99.90
7676;DHT22;3880;51.464;-2.566;2022-08-21T22:03:05;19.30;99.90
7676;DHT22;3880;51.464;-2.566;2022-08-21T22:05:48;19.30;99.90
7676;DHT22;3880;51.464;-2.566;2022-08-21T22:08:29;19.30;99.90
7676;DHT22;3880;51.464;-2.566;2022-08-21T22:11:10;19.40;99.90
7676;DHT22;3880;51.464;-2.566;2022-08-21T22:13:46;19.40;99.90
7676;DHT22;3880;51.464;-2.566;2022-08-21T22:16:16;19.40;99.90
7676;DHT22;3880;51.464;-2.566;2022-08-21T22:18:47;19.40;99.90
7676;DHT22;3880;51.464;-2.566;2022-08-21T22:21:18;19.30;99.90
7676;DHT22;3880;51.464;-2.566;2022-08-21T22:23:49;19.40;99.90
7676;DHT22;3880;51.464;-2.566;2022-08-21T22:26:20;19.20;99.90
7676;DHT22;3880;51.464;-2.566;2022-08-21T22:28:50;19.20;99.90
7676;DHT22;3880;51.464;-2.566;2022-08-21T22:31:21;19.20;99.90
7676;DHT22;3880;51.464;-2.566;2022-08-21T22:34:05;19.20;99.90
7676;DHT22;3880;51.464;-2.566;2022-08-21T22:36:35;19.30;99.90
7676;DHT22;3880;51.464;-2.566;2022-08-21T22:39:05;19.30;99.90
7676;DHT22;3880;51.464;-2.566;2022-08-21T22:41:40;19.40;99.90
7676;DHT22;3880;51.464;-2.566;2022-08-21T22:44:19;19.30;99.90
7676;DHT22;3880;51.464;-2.566;2022-08-21T22:46:49;19.30;99.90
7676;DHT22;3880;51.464;-2.566;2022-08-21T22:49:28;19.30;99.90
7676;DHT22;3880;51.464;-2.566;2022-08-21T22:52:07;19.30;99.90
7676;DHT22;3880;51.464;-2.566;2022-08-21T22:54:37;19.20;99.90
7676;DHT22;3880;51.464;-2.566;2022-08-21T22:57:08;19.20;99.90
7676;DHT22;3880;51.464;-2.566;2022-08-21T22:59:40;19.10;99.90
7676;DHT22;3880;51.464;-2.566;2022-08-21T23:02:29;19.10;99.90
7676;DHT22;3880;51.464;-2.566;2022-08-21T23:04:59;19.10;99.90
7676;DHT22;3880;51.464;-2.566;2022-08-21T23:07:40;19.10;99.90
7676;DHT22;3880;51.464;-2.566;2022-08-21T23:10:17;19.00;99.90
7676;DHT22;3880;51.464;-2.566;2022-08-21T23:12:49;19.00;99.90
7676;DHT22;3880;51.464;-2.566;2022-08-21T23:15:18;19.00;99.90
7676;DHT22;3880;51.464;-2.566;2022-08-21T23:17:50;19.00;99.90
7676;DHT22;3880;51.464;-2.566;2022-08-21T23:20:35;18.80;99.90
7676;DHT22;3880;51.464;-2.566;2022-08-21T23:26:30;18.80;99.90
7676;DHT22;3880;51.464;-2.566;2022-08-21T23:30:59;18.70;99.90
7676;DHT22;3880;51.464;-2.566;2022-08-21T23:36:39;18.60;99.90